Main page
METAR-TAF:

METAR-TAF

Airports :

Ilorin, Nigeria

Ilorin International Airport

latitude: 08-29N, longitude: 004-35E, elevation: 308 m

METAR: missing

Time: 22:45 (21:45 UTC)

Forecast

The report was made 6 hours and 5 minutes ago, at 15:40 UTC
Forecast valid from 24 at 18 UTC to 25 at 24 UTC
Wind 10 kt from the West
Visibility 10 km or more
Scattered clouds at a height of 1300 ft
Temporary
from 24 at 18 UTC to 24 at 21 UTC
Few clouds at a height of 2100 ft, Cumulonimbus.
thunderstorm
Becoming
from 24 at 21 UTC to 24 at 23 UTC
Wind 2 kt from variable directions
Becoming
from 25 at 08 UTC to 25 at 10 UTC
Wind 10 kt from the West
Broken clouds at a height of 1200 ft

TAF: DNIL 241540Z 2418/2524 26010KT 9999 SCT013 TEMPO 2418/2421 TS FEW021CB BECMG 2421/2423 VRB02KT BECMG 2508/2510 27010KT BKN012

Weather observations and forecasts of more than 4000 airports (METAR and TAF reports).

The available stations are represented by yellow and red dots on the map.

Hover mouse over dot to see the name of the station.

Then click to see weather observations and forecasts.

To change the map : click on the green buttons with a black cross to zoom in, on the green button with a dash to zoom out, or on the green arrows for adjacent maps.


METAR-TAF: